Time;durP1;ratioP1;P1;durP2;ratioP2;P2;SDS_P1;SDS_P2;PMS_P1;PMS_P2;Temp;Humidity;BMP_temperature;BMP_pressure;BME280_temperature;BME280_humidity;BME280_pressure;Samples;Min_cycle;Max_cycle;Signal;HPM_P1;HPM_P2
2023/01/14 00:01:01;;;;;;;18.63;3.90;;;;;;;;;;4950772;28;20207;-88
2023/01/14 00:03:28;;;;;;;16.67;3.67;;;;;;;;;;4950968;28;20187;-87
2023/01/14 00:05:55;;;;;;;17.17;3.93;;;;;;;;;;4963401;28;20229;-86
2023/01/14 00:08:21;;;;;;;13.30;3.27;;;;;;;;;;4933621;28;20180;-86
2023/01/14 00:10:47;;;;;;;19.87;3.83;;;;;;;;;;4950123;28;20179;-86
2023/01/14 00:13:13;;;;;;;18.70;3.50;;;;;;;;;;4964092;28;20238;-86
2023/01/14 00:15:39;;;;;;;17.63;3.97;;;;;;;;;;4969673;28;20175;-86
2023/01/14 00:18:05;;;;;;;16.33;3.67;;;;;;;;;;4944183;28;20221;-86
2023/01/14 00:20:31;;;;;;;17.13;4.17;;;;;;;;;;4943954;28;20183;-86
2023/01/14 00:22:57;;;;;;;19.70;3.83;;;;;;;;;;4944181;28;20189;-86
2023/01/14 00:25:23;;;;;;;16.87;3.67;;;;;;;;;;4944026;28;20183;-86
2023/01/14 00:27:51;;;;;;;15.83;4.13;;;;;;;;;;4944475;28;20194;-86
2023/01/14 00:30:18;;;;;;;19.77;3.90;;;;;;;;;;4960056;28;20179;-86
2023/01/14 00:32:44;;;;;;;12.93;3.57;;;;;;;;;;4944199;28;20186;-86
2023/01/14 00:35:10;;;;;;;26.60;4.73;;;;;;;;;;4943931;28;20288;-85
2023/01/14 00:37:36;;;;;;;23.10;4.97;;;;;;;;;;4959088;28;20187;-85
2023/01/14 00:40:02;;;;;;;23.80;4.47;;;;;;;;;;4944364;28;20189;-89
2023/01/14 00:42:28;;;;;;;26.50;4.10;;;;;;;;;;4959953;28;20210;-88
2023/01/14 00:44:54;;;;;;;24.47;4.90;;;;;;;;;;4944064;28;20183;-88
2023/01/14 00:47:20;;;;;;;15.87;4.03;;;;;;;;;;4959806;28;20503;-88
2023/01/14 00:49:46;;;;;;;19.37;3.90;;;;;;;;;;4959698;28;20213;-81
2023/01/14 00:52:12;;;;;;;18.43;4.60;;;;;;;;;;4976543;28;20196;-80
2023/01/14 00:54:38;;;;;;;18.37;4.23;;;;;;;;;;4943277;28;20253;-81
2023/01/14 00:57:05;;;;;;;20.57;4.03;;;;;;;;;;4943290;28;20191;-81
2023/01/14 00:59:31;;;;;;;22.30;4.33;;;;;;;;;;4941441;28;20191;-80
2023/01/14 01:01:57;;;;;;;23.13;4.70;;;;;;;;;;4959527;28;20238;-81
2023/01/14 01:04:24;;;;;;;22.03;4.60;;;;;;;;;;4951809;28;20207;-81
2023/01/14 01:06:50;;;;;;;17.93;4.33;;;;;;;;;;4975333;28;20230;-82
2023/01/14 01:09:16;;;;;;;22.83;4.70;;;;;;;;;;4940139;29;20242;-80
2023/01/14 01:11:43;;;;;;;28.03;4.80;;;;;;;;;;4941102;28;20194;-81
2023/01/14 01:14:09;;;;;;;22.33;4.97;;;;;;;;;;4959741;28;20206;-81
2023/01/14 01:16:35;;;;;;;24.07;4.90;;;;;;;;;;4958647;28;20187;-81
2023/01/14 01:19:01;;;;;;;24.57;4.60;;;;;;;;;;4975268;28;20206;-82
2023/01/14 01:21:28;;;;;;;22.13;4.60;;;;;;;;;;4935996;28;20226;-82
2023/01/14 01:23:54;;;;;;;23.10;4.97;;;;;;;;;;4976087;28;20261;-81
2023/01/14 01:26:24;;;;;;;22.37;4.80;;;;;;;;;;4969848;28;20182;-80
2023/01/14 01:28:52;;;;;;;18.63;4.40;;;;;;;;;;4978024;28;20178;-82
2023/01/14 01:31:19;;;;;;;19.87;4.40;;;;;;;;;;4995207;28;20177;-80
2023/01/14 01:33:45;;;;;;;23.37;4.87;;;;;;;;;;4977891;28;20178;-80
2023/01/14 01:36:12;;;;;;;25.80;4.63;;;;;;;;;;4994913;28;20186;-81
2023/01/14 01:38:38;;;;;;;20.97;4.83;;;;;;;;;;4972105;28;20178;-80
2023/01/14 01:41:05;;;;;;;20.53;4.97;;;;;;;;;;4948954;28;20210;-89
2023/01/14 01:43:31;;;;;;;25.20;4.20;;;;;;;;;;4954965;28;20183;-88
2023/01/14 01:45:59;;;;;;;23.70;4.33;;;;;;;;;;4951622;28;20186;-89
2023/01/14 01:48:27;;;;;;;24.17;4.73;;;;;;;;;;4963664;28;20186;-88
2023/01/14 01:50:56;;;;;;;21.70;4.37;;;;;;;;;;4950592;28;20245;-88
2023/01/14 01:53:23;;;;;;;16.23;4.10;;;;;;;;;;4949662;28;20191;-88
2023/01/14 01:55:52;;;;;;;20.80;4.33;;;;;;;;;;4950976;28;20187;-87
2023/01/14 01:58:18;;;;;;;21.10;4.50;;;;;;;;;;4964440;28;20187;-87
2023/01/14 02:00:45;;;;;;;24.13;4.87;;;;;;;;;;4964338;28;20316;-88
2023/01/14 02:03:13;;;;;;;18.67;4.40;;;;;;;;;;4933784;28;20420;-87
2023/01/14 02:05:39;;;;;;;20.93;4.50;;;;;;;;;;4947328;28;20223;-87
2023/01/14 02:08:05;;;;;;;26.17;4.77;;;;;;;;;;4950441;28;20190;-87
2023/01/14 02:10:45;;;;;;;16.30;3.90;;;;;;;;;;4948798;28;20329;-87
2023/01/14 02:13:15;;;;;;;28.57;4.87;;;;;;;;;;4950799;28;20190;-80
2023/01/14 02:15:41;;;;;;;17.13;3.77;;;;;;;;;;4966313;28;20178;-81
2023/01/14 02:18:36;;;;;;;18.57;4.17;;;;;;;;;;4949338;28;20189;-80
2023/01/14 02:21:09;;;;;;;23.43;4.40;;;;;;;;;;4913246;28;20232;-82
2023/01/14 02:23:39;;;;;;;16.47;3.63;;;;;;;;;;4958237;28;20182;-86
2023/01/14 02:26:20;;;;;;;16.83;4.57;;;;;;;;;;4957861;28;20182;-86
2023/01/14 02:28:46;;;;;;;21.20;4.13;;;;;;;;;;4947672;28;20186;-86
2023/01/14 02:31:28;;;;;;;21.83;4.50;;;;;;;;;;4949690;28;20198;-89
2023/01/14 02:33:57;;;;;;;22.00;4.83;;;;;;;;;;4949947;28;20248;-88
2023/01/14 02:36:26;;;;;;;21.53;4.80;;;;;;;;;;4952291;28;20233;-89
2023/01/14 02:39:03;;;;;;;24.07;5.10;;;;;;;;;;4974858;28;20186;-88
2023/01/14 02:44:27;;;;;;;16.67;4.87;;;;;;;;;;4973985;28;20226;-86
2023/01/14 02:46:54;;;;;;;23.90;5.10;;;;;;;;;;4974072;28;20213;-80
2023/01/14 02:49:22;;;;;;;20.00;5.47;;;;;;;;;;4974154;28;20210;-80
2023/01/14 02:51:49;;;;;;;29.37;5.53;;;;;;;;;;4951412;29;20191;-80
2023/01/14 02:54:17;;;;;;;23.93;6.10;;;;;;;;;;4966233;28;20198;-81
2023/01/14 02:56:44;;;;;;;25.97;5.67;;;;;;;;;;4941106;28;20191;-81
2023/01/14 02:59:10;;;;;;;27.20;6.37;;;;;;;;;;4957699;28;20190;-81
2023/01/14 03:01:48;;;;;;;28.33;6.30;;;;;;;;;;4957552;28;20206;-81
2023/01/14 03:04:17;;;;;;;32.27;5.70;;;;;;;;;;4957514;28;20182;-86
2023/01/14 03:06:49;;;;;;;26.40;6.17;;;;;;;;;;4957014;28;20313;-80
2023/01/14 03:09:15;;;;;;;23.37;6.13;;;;;;;;;;4957095;28;20187;-80
2023/01/14 03:11:50;;;;;;;26.47;6.23;;;;;;;;;;4974295;28;20193;-80
2023/01/14 03:14:22;;;;;;;24.93;5.63;;;;;;;;;;4957271;28;20277;-81
2023/01/14 03:17:00;;;;;;;31.50;6.60;;;;;;;;;;4956842;28;20195;-81
2023/01/14 03:19:30;;;;;;;32.27;6.60;;;;;;;;;;4957208;28;20186;-80
2023/01/14 03:21:56;;;;;;;27.27;6.07;;;;;;;;;;4958371;28;20222;-88
2023/01/14 03:24:34;;;;;;;32.47;6.73;;;;;;;;;;4960789;28;20201;-88
2023/01/14 03:27:02;;;;;;;32.93;5.83;;;;;;;;;;4960179;28;20187;-87
2023/01/14 03:29:31;;;;;;;33.23;6.50;;;;;;;;;;4960803;28;20182;-88
2023/01/14 03:32:02;;;;;;;29.87;5.57;;;;;;;;;;4977689;28;20179;-88
2023/01/14 03:34:31;;;;;;;34.50;6.57;;;;;;;;;;4960846;28;20195;-88
2023/01/14 03:36:59;;;;;;;30.80;6.23;;;;;;;;;;4960276;28;20182;-81
2023/01/14 03:39:26;;;;;;;27.30;5.90;;;;;;;;;;4960765;28;20178;-80
2023/01/14 03:44:58;;;;;;;32.90;5.97;;;;;;;;;;4974904;28;20198;-80
2023/01/14 03:47:29;;;;;;;29.67;6.37;;;;;;;;;;4959873;28;20214;-80
2023/01/14 03:49:56;;;;;;;31.30;6.17;;;;;;;;;;4960309;28;20185;-81
2023/01/14 03:52:25;;;;;;;35.50;6.27;;;;;;;;;;4960375;28;20282;-81
2023/01/14 03:54:54;;;;;;;28.87;5.90;;;;;;;;;;4960392;28;20185;-89
2023/01/14 03:57:20;;;;;;;30.90;6.57;;;;;;;;;;4959601;28;20186;-89
2023/01/14 03:59:46;;;;;;;33.73;6.73;;;;;;;;;;4958685;28;20193;-88
2023/01/14 04:02:13;;;;;;;31.87;6.20;;;;;;;;;;4959766;28;20221;-89
2023/01/14 04:04:41;;;;;;;35.50;6.43;;;;;;;;;;4959145;28;20225;-81
2023/01/14 04:07:07;;;;;;;32.50;6.13;;;;;;;;;;4958854;28;20218;-80
2023/01/14 04:09:33;;;;;;;26.47;6.43;;;;;;;;;;4942114;28;20209;-81
2023/01/14 04:11:59;;;;;;;35.03;6.43;;;;;;;;;;4960089;28;20272;-80
2023/01/14 04:17:10;;;;;;;39.40;6.33;;;;;;;;;;4959927;28;20217;-80
2023/01/14 04:19:36;;;;;;;33.77;6.77;;;;;;;;;;4944051;28;20190;-81
2023/01/14 04:22:02;;;;;;;32.80;6.37;;;;;;;;;;4944401;28;20229;-81
2023/01/14 04:24:28;;;;;;;37.40;6.30;;;;;;;;;;4944125;28;20183;-80
2023/01/14 04:26:54;;;;;;;37.50;6.90;;;;;;;;;;4944443;28;20190;-86
2023/01/14 04:29:20;;;;;;;31.07;6.80;;;;;;;;;;4960265;28;20183;-86
2023/01/14 04:31:46;;;;;;;32.87;7.20;;;;;;;;;;4960038;28;20194;-86
2023/01/14 04:34:12;;;;;;;37.00;6.93;;;;;;;;;;4957890;28;20191;-86
2023/01/14 04:36:38;;;;;;;31.17;6.40;;;;;;;;;;4944303;28;20281;-86
2023/01/14 04:39:04;;;;;;;36.33;6.13;;;;;;;;;;4944431;28;20225;-86
2023/01/14 04:44:14;;;;;;;30.90;6.20;;;;;;;;;;4956914;29;20231;-81
2023/01/14 04:46:42;;;;;;;33.30;6.73;;;;;;;;;;4940675;29;20187;-80
2023/01/14 04:49:08;;;;;;;36.07;8.10;;;;;;;;;;4940501;29;20274;-81
2023/01/14 04:51:34;;;;;;;29.93;6.83;;;;;;;;;;4940151;29;20364;-81
2023/01/14 04:54:00;;;;;;;36.93;6.97;;;;;;;;;;4940330;29;20219;-81
2023/01/14 04:56:26;;;;;;;37.23;6.23;;;;;;;;;;4940485;29;20195;-89
2023/01/14 04:58:52;;;;;;;33.87;7.03;;;;;;;;;;4940305;29;20199;-88
2023/01/14 05:01:18;;;;;;;31.37;7.13;;;;;;;;;;4956256;29;20211;-80
2023/01/14 05:03:44;;;;;;;37.17;6.67;;;;;;;;;;4956158;29;20180;-80
2023/01/14 05:06:10;;;;;;;32.80;6.17;;;;;;;;;;4955846;29;20231;-81
2023/01/14 05:08:36;;;;;;;42.03;6.63;;;;;;;;;;4964749;28;20190;-81
2023/01/14 05:11:02;;;;;;;35.37;6.20;;;;;;;;;;4959107;28;20186;-81
2023/01/14 05:13:28;;;;;;;32.53;6.20;;;;;;;;;;4943151;28;20213;-81
2023/01/14 05:15:58;;;;;;;34.40;6.70;;;;;;;;;;4975273;28;20198;-80
2023/01/14 05:18:25;;;;;;;35.73;6.87;;;;;;;;;;4958567;28;20186;-80
2023/01/14 05:20:51;;;;;;;31.23;5.50;;;;;;;;;;4942826;28;20182;-81
2023/01/14 05:23:18;;;;;;;31.70;6.43;;;;;;;;;;4943330;28;20187;-80
2023/01/14 05:25:45;;;;;;;33.47;6.20;;;;;;;;;;4958977;28;20194;-80
2023/01/14 05:28:12;;;;;;;28.43;5.53;;;;;;;;;;4959140;28;20185;-80
2023/01/14 05:30:38;;;;;;;30.07;5.60;;;;;;;;;;4958792;28;20202;-80
2023/01/14 05:33:04;;;;;;;31.23;5.80;;;;;;;;;;4942973;28;20187;-85
2023/01/14 05:35:31;;;;;;;33.37;6.23;;;;;;;;;;4958987;28;20186;-85
2023/01/14 05:37:57;;;;;;;37.70;5.60;;;;;;;;;;4975919;28;20183;-86
2023/01/14 05:40:23;;;;;;;28.97;5.33;;;;;;;;;;4943089;28;20201;-85
2023/01/14 05:45:49;;;;;;;28.33;6.13;;;;;;;;;;4975700;28;20244;-85
2023/01/14 05:48:19;;;;;;;30.10;5.37;;;;;;;;;;4944471;28;20186;-85
2023/01/14 05:50:45;;;;;;;34.30;5.33;;;;;;;;;;4958857;28;20183;-81
2023/01/14 05:53:11;;;;;;;38.10;5.93;;;;;;;;;;4942790;28;20194;-80
2023/01/14 05:55:38;;;;;;;26.83;5.87;;;;;;;;;;4958483;28;20188;-81
2023/01/14 05:58:05;;;;;;;32.33;5.20;;;;;;;;;;4958795;28;20190;-80
2023/01/14 06:06:22;;;;;;;23.70;4.77;;;;;;;;;;4975444;28;20273;-81
2023/01/14 06:08:52;;;;;;;28.57;5.37;;;;;;;;;;4958515;28;20198;-81
2023/01/14 06:11:19;;;;;;;29.07;5.33;;;;;;;;;;4958227;28;20185;-81
2023/01/14 06:13:46;;;;;;;26.73;5.67;;;;;;;;;;4942494;28;20194;-81
2023/01/14 06:16:12;;;;;;;34.03;5.40;;;;;;;;;;4958411;28;20221;-81
2023/01/14 06:18:41;;;;;;;24.63;4.53;;;;;;;;;;4942237;28;20225;-81
2023/01/14 06:21:08;;;;;;;23.60;4.63;;;;;;;;;;4958189;28;20218;-81
2023/01/14 06:23:34;;;;;;;22.27;4.83;;;;;;;;;;4958208;28;20174;-81
2023/01/14 06:26:01;;;;;;;19.93;4.30;;;;;;;;;;4975151;28;20179;-88
2023/01/14 06:28:28;;;;;;;17.80;4.47;;;;;;;;;;4957968;28;20252;-89
2023/01/14 06:30:54;;;;;;;23.80;5.27;;;;;;;;;;4942686;28;20179;-89
2023/01/14 06:33:21;;;;;;;27.77;5.27;;;;;;;;;;4975196;28;20178;-88
2023/01/14 06:35:47;;;;;;;26.77;5.07;;;;;;;;;;4957948;28;20183;-88
2023/01/14 06:38:13;;;;;;;24.63;5.67;;;;;;;;;;4942554;28;20245;-89
2023/01/14 06:40:41;;;;;;;22.80;5.27;;;;;;;;;;4957351;28;20179;-80
2023/01/14 06:43:08;;;;;;;25.43;4.97;;;;;;;;;;4938472;29;20234;-81
2023/01/14 06:45:34;;;;;;;30.77;5.40;;;;;;;;;;4923407;29;20193;-80
2023/01/14 06:48:00;;;;;;;24.43;5.27;;;;;;;;;;4953814;28;20182;-81
2023/01/14 06:50:26;;;;;;;24.20;4.50;;;;;;;;;;4957523;28;20198;-80
2023/01/14 06:52:52;;;;;;;27.83;4.67;;;;;;;;;;4957806;28;20233;-81
2023/01/14 06:55:19;;;;;;;23.30;4.93;;;;;;;;;;4942198;28;20186;-80
2023/01/14 06:57:45;;;;;;;23.20;4.93;;;;;;;;;;4944785;28;20267;-86
2023/01/14 07:00:12;;;;;;;25.80;4.83;;;;;;;;;;4978498;28;20197;-86
2023/01/14 07:02:38;;;;;;;25.23;4.90;;;;;;;;;;4978611;28;20207;-81
2023/01/14 07:05:04;;;;;;;23.37;5.10;;;;;;;;;;4961527;28;20190;-80
2023/01/14 07:07:30;;;;;;;22.90;4.97;;;;;;;;;;4945330;28;20226;-81
2023/01/14 07:09:56;;;;;;;19.60;4.60;;;;;;;;;;4945526;28;20185;-81
2023/01/14 07:12:22;;;;;;;23.80;5.07;;;;;;;;;;4979547;28;20319;-80
2023/01/14 07:14:48;;;;;;;22.90;4.90;;;;;;;;;;4964768;28;20197;-80
2023/01/14 07:17:14;;;;;;;21.47;4.87;;;;;;;;;;4950910;28;20186;-80
2023/01/14 07:19:40;;;;;;;23.33;5.57;;;;;;;;;;4978331;28;20178;-80
2023/01/14 07:22:06;;;;;;;19.73;4.57;;;;;;;;;;4945419;28;20225;-81
2023/01/14 07:24:32;;;;;;;21.33;4.40;;;;;;;;;;4961332;28;20193;-81
2023/01/14 07:26:59;;;;;;;25.77;5.23;;;;;;;;;;4945030;28;20273;-80
2023/01/14 07:29:25;;;;;;;20.20;4.60;;;;;;;;;;4961289;28;20183;-80
2023/01/14 07:31:52;;;;;;;25.30;5.07;;;;;;;;;;4961402;28;20194;-80
2023/01/14 07:34:18;;;;;;;24.70;5.50;;;;;;;;;;4945222;28;20190;-81
2023/01/14 07:36:44;;;;;;;23.13;4.13;;;;;;;;;;4977959;28;20185;-80
2023/01/14 07:39:10;;;;;;;21.83;4.53;;;;;;;;;;4945146;28;20281;-80
2023/01/14 07:41:36;;;;;;;27.13;5.53;;;;;;;;;;4960684;28;20202;-80
2023/01/14 07:44:04;;;;;;;24.13;5.07;;;;;;;;;;4944708;28;20241;-80
2023/01/14 07:46:30;;;;;;;23.90;5.03;;;;;;;;;;4945006;28;20183;-81
2023/01/14 07:48:57;;;;;;;26.47;4.87;;;;;;;;;;4977908;28;20210;-80
2023/01/14 07:51:23;;;;;;;30.80;5.33;;;;;;;;;;4960647;28;20195;-80
2023/01/14 07:53:49;;;;;;;26.37;5.20;;;;;;;;;;4935827;28;20184;-87
2023/01/14 07:56:16;;;;;;;25.97;5.50;;;;;;;;;;4965199;28;20221;-86
2023/01/14 07:58:42;;;;;;;21.13;4.70;;;;;;;;;;4950954;28;20178;-87
2023/01/14 08:01:09;;;;;;;27.23;4.73;;;;;;;;;;4968732;28;20211;-88
2023/01/14 08:03:36;;;;;;;18.90;4.57;;;;;;;;;;4952587;28;20182;-81
2023/01/14 08:06:03;;;;;;;24.83;5.23;;;;;;;;;;4948785;28;20218;-81
2023/01/14 08:08:29;;;;;;;22.40;4.80;;;;;;;;;;4950392;28;20262;-81
2023/01/14 08:10:59;;;;;;;27.87;5.93;;;;;;;;;;4965399;28;20188;-88
2023/01/14 08:13:27;;;;;;;30.33;5.87;;;;;;;;;;4950713;28;20222;-88
2023/01/14 08:15:57;;;;;;;26.80;5.40;;;;;;;;;;4951150;28;20230;-81
2023/01/14 08:18:23;;;;;;;26.23;5.17;;;;;;;;;;4935608;28;20234;-80
2023/01/14 08:20:56;;;;;;;24.53;5.07;;;;;;;;;;4954723;28;20197;-88
2023/01/14 08:23:22;;;;;;;26.63;5.03;;;;;;;;;;4952910;28;20179;-88
2023/01/14 08:25:48;;;;;;;19.40;5.27;;;;;;;;;;4963717;28;20191;-90
2023/01/14 08:28:14;;;;;;;21.40;5.40;;;;;;;;;;4969132;28;20203;-87
2023/01/14 08:30:40;;;;;;;19.37;5.33;;;;;;;;;;4964475;28;20187;-86
2023/01/14 08:33:07;;;;;;;23.13;5.33;;;;;;;;;;4981291;28;20206;-84
2023/01/14 08:35:33;;;;;;;24.23;5.70;;;;;;;;;;4958807;28;20206;-88
2023/01/14 08:37:59;;;;;;;17.27;5.00;;;;;;;;;;4959889;28;20224;-85
2023/01/14 08:40:25;;;;;;;17.70;5.23;;;;;;;;;;4958357;28;20277;-84
2023/01/14 08:42:51;;;;;;;20.73;5.57;;;;;;;;;;4938605;29;20305;-85
2023/01/14 08:45:18;;;;;;;21.37;5.40;;;;;;;;;;4940525;29;20180;-80
2023/01/14 08:47:44;;;;;;;18.83;5.40;;;;;;;;;;4946316;28;20190;-80
2023/01/14 08:50:10;;;;;;;14.13;5.03;;;;;;;;;;4959313;28;20233;-80
2023/01/14 08:52:36;;;;;;;18.27;5.00;;;;;;;;;;4959140;28;20186;-80
2023/01/14 08:55:02;;;;;;;17.63;4.43;;;;;;;;;;4959247;28;20225;-80
2023/01/14 08:57:29;;;;;;;18.97;5.27;;;;;;;;;;4944894;28;20185;-80
2023/01/14 08:59:55;;;;;;;18.97;5.57;;;;;;;;;;4961593;28;20280;-80
2023/01/14 09:02:21;;;;;;;16.37;5.13;;;;;;;;;;4958931;28;20294;-80
2023/01/14 09:04:47;;;;;;;19.93;5.10;;;;;;;;;;4943220;28;20206;-81
2023/01/14 09:18:11;;;;;;;15.50;4.30;;;;;;;;;;4961916;28;20201;-85
2023/01/14 09:20:40;;;;;;;18.63;4.30;;;;;;;;;;4958638;28;20217;-85
2023/01/14 09:23:07;;;;;;;18.33;4.90;;;;;;;;;;4959089;28;20272;-85
2023/01/14 09:25:33;;;;;;;12.60;4.07;;;;;;;;;;4958656;28;20274;-85
2023/01/14 09:27:59;;;;;;;14.00;4.70;;;;;;;;;;4958701;28;20187;-80
2023/01/14 09:30:26;;;;;;;11.80;4.60;;;;;;;;;;4958717;28;20190;-81
2023/01/14 09:32:52;;;;;;;19.83;5.10;;;;;;;;;;4975696;28;20182;-81
2023/01/14 09:35:18;;;;;;;16.20;4.47;;;;;;;;;;4943102;28;20324;-80
2023/01/14 09:37:44;;;;;;;13.70;4.73;;;;;;;;;;4975883;28;20190;-81
2023/01/14 09:40:10;;;;;;;16.10;4.77;;;;;;;;;;4942969;28;20182;-81
2023/01/14 09:42:39;;;;;;;19.60;4.60;;;;;;;;;;4943031;28;20213;-81
2023/01/14 09:45:24;;;;;;;17.30;4.87;;;;;;;;;;4959118;28;20175;-88
2023/01/14 09:47:51;;;;;;;14.53;4.23;;;;;;;;;;4958788;28;20213;-88
2023/01/14 09:50:20;;;;;;;13.10;3.50;;;;;;;;;;4947121;29;20209;-87
2023/01/14 09:52:52;;;;;;;12.40;3.67;;;;;;;;;;4944645;28;20193;-87
2023/01/14 09:55:18;;;;;;;10.33;3.83;;;;;;;;;;4958723;28;20178;-88
2023/01/14 09:57:55;;;;;;;10.52;3.97;;;;;;;;;;4957735;28;20420;-88
2023/01/14 10:00:40;;;;;;;8.90;3.43;;;;;;;;;;4968655;28;20193;-81
2023/01/14 10:03:18;;;;;;;11.13;3.13;;;;;;;;;;4958289;28;20269;-81
2023/01/14 10:05:56;;;;;;;7.43;3.00;;;;;;;;;;4974922;28;20222;-81
2023/01/14 10:08:24;;;;;;;7.03;2.50;;;;;;;;;;4957542;28;20187;-81
2023/01/14 10:10:50;;;;;;;10.37;2.60;;;;;;;;;;4938205;29;20180;-81
2023/01/14 10:13:25;;;;;;;5.03;2.53;;;;;;;;;;4966089;28;20193;-81
2023/01/14 10:15:55;;;;;;;5.50;2.30;;;;;;;;;;4975357;28;20182;-81
2023/01/14 10:18:21;;;;;;;7.70;2.90;;;;;;;;;;4956010;28;20187;-86
2023/01/14 10:20:47;;;;;;;10.37;2.80;;;;;;;;;;4968282;23;20231;-84
2023/01/14 10:23:14;;;;;;;8.50;2.50;;;;;;;;;;4947496;28;20230;-84
2023/01/14 10:25:45;;;;;;;7.87;2.70;;;;;;;;;;4953837;28;20187;-83
2023/01/14 10:28:13;;;;;;;5.40;2.27;;;;;;;;;;4933611;29;20260;-82
2023/01/14 10:30:39;;;;;;;7.57;2.60;;;;;;;;;;4943517;28;20183;-83
2023/01/14 10:33:07;;;;;;;9.13;2.97;;;;;;;;;;4949740;28;20284;-77
2023/01/14 10:35:34;;;;;;;10.03;3.40;;;;;;;;;;4926500;29;20187;-77
2023/01/14 10:38:01;;;;;;;9.00;3.00;;;;;;;;;;4934877;29;20190;-77
2023/01/14 10:40:28;;;;;;;7.33;2.87;;;;;;;;;;4955237;29;20215;-77
2023/01/14 10:42:55;;;;;;;5.73;2.63;;;;;;;;;;4946019;29;20247;-77
2023/01/14 10:45:21;;;;;;;8.27;3.07;;;;;;;;;;4938208;29;20198;-77
2023/01/14 10:47:48;;;;;;;10.03;3.17;;;;;;;;;;4940350;29;20180;-77
2023/01/14 10:50:17;;;;;;;11.40;3.13;;;;;;;;;;4937026;29;20192;-77
2023/01/14 10:52:43;;;;;;;8.10;3.17;;;;;;;;;;4922278;29;20188;-77
2023/01/14 10:55:17;;;;;;;9.30;3.00;;;;;;;;;;4923132;29;20218;-77
2023/01/14 10:57:48;;;;;;;5.97;2.70;;;;;;;;;;4953485;29;20196;-77
2023/01/14 11:00:33;;;;;;;9.37;2.93;;;;;;;;;;4941232;29;20251;-77
2023/01/14 11:03:00;;;;;;;5.43;2.23;;;;;;;;;;4944957;29;20274;-77
2023/01/14 11:05:30;;;;;;;6.80;2.53;;;;;;;;;;4943030;29;20255;-77
2023/01/14 11:07:58;;;;;;;9.70;2.57;;;;;;;;;;4938779;29;20232;-83
2023/01/14 11:10:25;;;;;;;7.23;2.47;;;;;;;;;;4953224;29;20183;-84
2023/01/14 11:12:52;;;;;;;7.90;2.30;;;;;;;;;;4944694;29;20242;-83
2023/01/14 11:15:38;;;;;;;7.50;2.20;;;;;;;;;;4945055;29;20192;-83
2023/01/14 11:18:19;;;;;;;8.40;2.50;;;;;;;;;;4927052;29;20188;-83
2023/01/14 11:21:11;;;;;;;8.33;2.60;;;;;;;;;;4953797;29;20231;-83
2023/01/14 11:23:39;;;;;;;7.03;2.17;;;;;;;;;;4938894;28;20214;-83
2023/01/14 11:26:10;;;;;;;6.60;1.90;;;;;;;;;;4948219;29;20255;-83
2023/01/14 11:28:42;;;;;;;5.37;2.00;;;;;;;;;;4930530;28;20221;-83
2023/01/14 11:31:08;;;;;;;9.77;2.40;;;;;;;;;;4944756;28;20187;-83
2023/01/14 11:33:35;;;;;;;8.80;2.33;;;;;;;;;;4938457;29;20195;-83
2023/01/14 11:36:02;;;;;;;8.77;2.23;;;;;;;;;;4936385;29;20187;-83
2023/01/14 11:38:29;;;;;;;7.13;2.60;;;;;;;;;;4951729;29;20193;-83
2023/01/14 11:44:00;;;;;;;7.43;2.33;;;;;;;;;;4938140;29;20199;-77
2023/01/14 11:46:26;;;;;;;5.00;1.83;;;;;;;;;;4938501;29;20203;-77
2023/01/14 11:49:04;;;;;;;5.83;1.90;;;;;;;;;;4932410;29;20332;-78
2023/01/14 11:51:32;;;;;;;4.23;1.73;;;;;;;;;;4922014;29;20184;-78
2023/01/14 11:53:58;;;;;;;6.70;2.00;;;;;;;;;;4937465;29;20192;-78
2023/01/14 11:56:38;;;;;;;4.87;1.60;;;;;;;;;;4926432;29;20195;-83
2023/01/14 11:59:14;;;;;;;7.07;1.80;;;;;;;;;;4938106;29;20194;-83
2023/01/14 12:01:42;;;;;;;4.97;1.50;;;;;;;;;;4956196;29;20206;-83
2023/01/14 12:04:16;;;;;;;4.40;1.43;;;;;;;;;;4938316;29;20239;-83
2023/01/14 12:06:55;;;;;;;3.03;1.60;;;;;;;;;;4948411;29;20179;-83
2023/01/14 12:09:22;;;;;;;3.13;1.50;;;;;;;;;;4951060;29;20179;-83
2023/01/14 12:11:48;;;;;;;4.10;1.50;;;;;;;;;;4947324;29;20238;-83
2023/01/14 12:17:12;;;;;;;5.70;1.70;;;;;;;;;;4942363;29;20203;-83
2023/01/14 12:19:47;;;;;;;4.30;1.40;;;;;;;;;;4938000;29;20191;-83
2023/01/14 12:22:16;;;;;;;2.70;1.37;;;;;;;;;;4943097;29;20258;-83
2023/01/14 12:24:49;;;;;;;3.40;1.47;;;;;;;;;;4929819;29;20209;-83
2023/01/14 12:27:42;;;;;;;2.10;1.17;;;;;;;;;;4946305;29;20183;-83
2023/01/14 12:30:10;;;;;;;1.60;1.20;;;;;;;;;;4952022;28;20273;-77
2023/01/14 12:32:37;;;;;;;3.63;1.40;;;;;;;;;;4935656;29;20218;-78
2023/01/14 12:35:03;;;;;;;2.27;1.13;;;;;;;;;;4943419;29;20198;-77
2023/01/14 12:37:38;;;;;;;2.57;1.47;;;;;;;;;;4942402;29;20250;-78
2023/01/14 12:46:01;;;;;;;3.00;1.23;;;;;;;;;;4950155;28;20250;-77
2023/01/14 12:48:27;;;;;;;3.77;1.30;;;;;;;;;;4947048;29;20184;-83
2023/01/14 12:50:59;;;;;;;3.97;1.30;;;;;;;;;;4929766;29;20192;-84
2023/01/14 12:53:27;;;;;;;2.10;1.07;;;;;;;;;;4938136;28;20247;-83
2023/01/14 12:55:54;;;;;;;2.10;1.37;;;;;;;;;;4939604;29;20386;-84
2023/01/14 12:58:22;;;;;;;2.47;1.13;;;;;;;;;;4943820;29;20188;-84
2023/01/14 13:00:54;;;;;;;1.30;1.10;;;;;;;;;;4938356;29;20246;-84
2023/01/14 13:03:29;;;;;;;2.13;1.20;;;;;;;;;;4944361;28;20223;-83
2023/01/14 13:05:56;;;;;;;2.83;1.40;;;;;;;;;;4936830;29;20191;-83
2023/01/14 13:08:22;;;;;;;2.03;1.30;;;;;;;;;;4920915;29;20211;-83
2023/01/14 13:10:57;;;;;;;3.73;1.20;;;;;;;;;;4948064;29;20184;-86
2023/01/14 13:13:24;;;;;;;3.37;1.20;;;;;;;;;;4946046;29;20190;-83
2023/01/14 13:15:51;;;;;;;2.20;1.30;;;;;;;;;;4941588;29;20187;-83
2023/01/14 13:18:35;;;;;;;2.93;1.37;;;;;;;;;;4936628;29;20212;-83
2023/01/14 13:21:02;;;;;;;6.07;1.37;;;;;;;;;;4946432;29;20235;-83
2023/01/14 13:23:37;;;;;;;2.87;1.20;;;;;;;;;;4937171;29;20195;-83
2023/01/14 13:26:18;;;;;;;2.20;1.30;;;;;;;;;;4946483;29;20211;-83
2023/01/14 13:29:03;;;;;;;2.90;1.30;;;;;;;;;;4920809;29;20182;-83
2023/01/14 13:31:36;;;;;;;2.47;1.43;;;;;;;;;;4932022;29;20199;-83
2023/01/14 13:34:21;;;;;;;2.23;1.20;;;;;;;;;;4936025;29;20188;-83
2023/01/14 13:37:08;;;;;;;1.70;1.60;;;;;;;;;;4940233;29;20256;-81
2023/01/14 13:39:34;;;;;;;1.57;1.40;;;;;;;;;;4917437;29;20230;-80
2023/01/14 13:42:01;;;;;;;1.70;1.60;;;;;;;;;;4941470;28;20206;-80
2023/01/14 13:44:31;;;;;;;2.07;1.70;;;;;;;;;;4947698;29;20260;-80
2023/01/14 13:46:58;;;;;;;2.53;1.70;;;;;;;;;;4954349;29;20178;-80
2023/01/14 13:49:34;;;;;;;3.57;1.90;;;;;;;;;;4938687;29;20180;-81
2023/01/14 13:52:24;;;;;;;3.40;1.80;;;;;;;;;;4944534;29;20191;-80
2023/01/14 13:55:08;;;;;;;3.40;1.80;;;;;;;;;;4921240;29;20215;-83
2023/01/14 13:57:36;;;;;;;2.20;2.00;;;;;;;;;;4945134;29;20188;-83
2023/01/14 14:00:23;;;;;;;3.13;2.00;;;;;;;;;;4940026;28;20188;-83
2023/01/14 14:02:54;;;;;;;2.30;1.60;;;;;;;;;;4929902;29;20246;-83
2023/01/14 14:05:33;;;;;;;2.27;1.77;;;;;;;;;;4920775;29;20179;-83
2023/01/14 14:08:00;;;;;;;3.13;2.00;;;;;;;;;;4937750;28;20191;-83
2023/01/14 14:10:29;;;;;;;2.23;2.03;;;;;;;;;;4939326;28;20283;-83
2023/01/14 14:15:54;;;;;;;2.13;1.93;;;;;;;;;;4937085;29;20215;-84
2023/01/14 14:18:30;;;;;;;1.80;1.67;;;;;;;;;;4941991;29;20247;-84
2023/01/14 14:20:57;;;;;;;1.83;1.73;;;;;;;;;;4951471;29;20255;-84
2023/01/14 14:23:36;;;;;;;2.40;2.00;;;;;;;;;;4936054;28;20243;-84
2023/01/14 14:26:10;;;;;;;3.90;2.10;;;;;;;;;;4935567;29;20248;-83
2023/01/14 14:28:38;;;;;;;2.30;1.80;;;;;;;;;;4947952;28;20241;-78
2023/01/14 14:31:08;;;;;;;2.33;1.80;;;;;;;;;;4949033;28;20192;-78
2023/01/14 14:33:41;;;;;;;1.73;1.63;;;;;;;;;;4944897;28;20191;-78
2023/01/14 14:36:07;;;;;;;1.93;1.80;;;;;;;;;;4950606;28;20247;-78
2023/01/14 14:38:34;;;;;;;1.87;1.70;;;;;;;;;;4949654;28;20182;-78
2023/01/14 14:41:05;;;;;;;2.50;1.83;;;;;;;;;;4946842;29;20194;-78
2023/01/14 14:43:31;;;;;;;3.13;1.60;;;;;;;;;;4965064;28;20198;-81
2023/01/14 14:46:01;;;;;;;2.83;2.07;;;;;;;;;;4940985;29;20199;-78
2023/01/14 14:48:29;;;;;;;1.97;1.77;;;;;;;;;;4919916;29;20191;-78
2023/01/14 14:50:55;;;;;;;2.70;1.90;;;;;;;;;;4946214;28;20191;-78
2023/01/14 14:53:30;;;;;;;1.77;1.67;;;;;;;;;;4961215;28;20186;-78
2023/01/14 14:55:57;;;;;;;2.87;1.87;;;;;;;;;;4943860;28;20233;-78
2023/01/14 14:58:24;;;;;;;2.10;1.70;;;;;;;;;;4944375;28;20187;-77
2023/01/14 15:00:58;;;;;;;2.27;1.67;;;;;;;;;;4933339;29;20183;-78
2023/01/14 15:03:25;;;;;;;1.60;1.50;;;;;;;;;;4946349;28;20238;-79
2023/01/14 15:05:52;;;;;;;2.20;1.90;;;;;;;;;;4966377;28;20266;-78
2023/01/14 15:08:20;;;;;;;2.67;1.93;;;;;;;;;;4941356;28;20183;-78
2023/01/14 15:10:47;;;;;;;3.13;2.30;;;;;;;;;;4948203;29;20180;-78
2023/01/14 15:13:16;;;;;;;2.30;2.10;;;;;;;;;;4936948;29;20191;-78
2023/01/14 15:15:42;;;;;;;2.20;2.00;;;;;;;;;;4922931;29;20184;-78
2023/01/14 15:18:24;;;;;;;1.93;1.83;;;;;;;;;;4941683;28;20191;-77
2023/01/14 15:20:50;;;;;;;2.40;2.20;;;;;;;;;;4945205;29;20194;-78
2023/01/14 15:23:16;;;;;;;2.70;2.30;;;;;;;;;;4935648;29;20289;-78
2023/01/14 15:25:43;;;;;;;2.07;1.90;;;;;;;;;;4935568;29;20208;-78
2023/01/14 15:28:18;;;;;;;2.60;2.30;;;;;;;;;;4937145;29;20199;-78